KHUA/HUA METAR and TAF weather

Enter ICAO airport designator
Station Type Date Time Source
KHUA METAR 2019/09/21 20:58 UTC NOAA

KHUA 212058Z AUTO 00000KT 10SM CLR 31/12 A3016 RMK AO2 SLP208 T03120122 57025


Station Type Date Time Source
KHUA Decoded METAR 2019/09/21 20:58 UTC NOAA

Station name not available
Sep 21, 2019 - 04:58 PM EDT / 2019.09.21 2058 UTC
Wind: Calm:0
Visibility: 10 mile(s):0
Sky conditions: clear
Temperature: 88.2 F (31.2 C)
Dew Point: 54.0 F (12.2 C)
Relative Humidity: 31%
Pressure (altimeter): 30.16 in. Hg (1021 hPa)
Pressure tendency: 0.07 inches (2.5 hPa) lower than three hours ago
ob: KHUA 212058Z AUTO 00000KT 10SM CLR 31/12 A3016 RMK AO2 SLP208 T03120122 57025
cycle: 21

Station Type Date Time Source
KHUA TAF UTC NOAA

Error!

Example: see airport list